メインページ
METAR-TAF:

METAR-TAF

空港 :

テグシガルパ, ホンジュラス

トンコンティン国際空港

緯度: 14-03N, 経度: 087-13W, 海抜: 994m

現時点の気象観測

当レポートは1時間5分前の21:00(UTC)に作成
東/北東の風 10kt
気温 27°C
湿度 48%
気圧 1018 hPa
視程10km以上
高度3000ftの雲は散在している

METAR: MHTG 192100Z 06010KT 9999 SCT030 27/15 Q1018 A3006 NOSIG

時間: 16:05 (22:05 UTC)

予報

当レポートは5時間35分前の16:30(UTC)に作成
予報は19日の 18時(UTC)から 20日の 18時(UTC)まで有効
北/北東の風 10kt
視程10km以上
高度2800ftの千切れ雲あり
19日の 20時(UTC)から 20日の 02時(UTC)まで一時的に
視程: 7000m
高度1400ftの雲はほとんどない
高度2600ftの千切れ雲あり
近辺でにわか雨
20日の 02時(UTC)から 20日の 04時(UTC)まで徐々に
視程10km以上
20日の 10時(UTC)から 20日の 12時(UTC)まで徐々に
視程: 7000m
高度800ftの雲はほとんどない
高度2400ftの千切れ雲あり
20日の 14時(UTC)から 20日の 16時(UTC)まで徐々に
視程10km以上
高度2800ftの雲は散在している

TAF: MHTG 191630Z 1918/2018 02010KT 9999 BKN028 TX25/1920Z TN16/2012Z TEMPO 1920/2002 7000 VCSH FEW014 BKN026 BECMG 2002/2004 9999 NSW BECMG 2010/2012 7000 FEW008 BKN024 BECMG 2014/2016 9999 NSW SCT028

4,000以上の空港の気象観測と天気予報(METAR報とTAF報)

利用可能な観測所は地図上に黄色い丸と赤い丸で示す。

丸の上にカーソルを重ねると観測所名を参照できる。

次にクリックすると気象観測と天気予報を参照できる。

マップの切り替え:黒色「×」印の緑ボタンをクリックして拡大、「-」印の緑ボタンをクリックして縮小、緑色の三角印をクリックして隣りの地図に切り替え


METAR-TAF: